sensor_id;sensor_type;location;lat;lon;timestamp;temperature;humidity
19862;DHT22;10093;48.148;8.542;2023-04-15T00:00:48;-1.20;99.90
19862;DHT22;10093;48.148;8.542;2023-04-15T00:03:16;-1.10;99.90
19862;DHT22;10093;48.148;8.542;2023-04-15T00:05:41;-1.00;99.90
19862;DHT22;10093;48.148;8.542;2023-04-15T00:08:07;-0.60;99.90
19862;DHT22;10093;48.148;8.542;2023-04-15T00:10:33;-0.60;99.90
19862;DHT22;10093;48.148;8.542;2023-04-15T00:12:59;-0.50;99.90
19862;DHT22;10093;48.148;8.542;2023-04-15T00:15:25;-0.40;99.90
19862;DHT22;10093;48.148;8.542;2023-04-15T00:17:51;-0.50;99.90
19862;DHT22;10093;48.148;8.542;2023-04-15T00:20:17;-0.80;99.90
19862;DHT22;10093;48.148;8.542;2023-04-15T00:22:42;-0.90;99.90
19862;DHT22;10093;48.148;8.542;2023-04-15T00:25:08;-1.10;99.90
19862;DHT22;10093;48.148;8.542;2023-04-15T00:27:34;-1.40;99.90
19862;DHT22;10093;48.148;8.542;2023-04-15T00:29:59;-1.40;99.90
19862;DHT22;10093;48.148;8.542;2023-04-15T00:32:25;-1.30;99.90
19862;DHT22;10093;48.148;8.542;2023-04-15T00:34:50;-1.50;99.90
19862;DHT22;10093;48.148;8.542;2023-04-15T00:37:16;-1.60;99.90
19862;DHT22;10093;48.148;8.542;2023-04-15T00:39:42;-1.60;99.90
19862;DHT22;10093;48.148;8.542;2023-04-15T00:42:08;-1.50;99.90
19862;DHT22;10093;48.148;8.542;2023-04-15T00:44:34;-1.50;99.90
19862;DHT22;10093;48.148;8.542;2023-04-15T00:47:00;-1.20;99.90
19862;DHT22;10093;48.148;8.542;2023-04-15T00:49:29;-1.20;99.90
19862;DHT22;10093;48.148;8.542;2023-04-15T00:51:56;-1.20;99.90
19862;DHT22;10093;48.148;8.542;2023-04-15T00:54:22;-1.30;99.90
19862;DHT22;10093;48.148;8.542;2023-04-15T00:56:47;-1.40;99.90
19862;DHT22;10093;48.148;8.542;2023-04-15T00:59:13;-1.20;99.90
19862;DHT22;10093;48.148;8.542;2023-04-15T01:01:39;-1.20;99.90
19862;DHT22;10093;48.148;8.542;2023-04-15T01:04:06;-1.40;99.90
19862;DHT22;10093;48.148;8.542;2023-04-15T01:06:34;-1.60;99.90
19862;DHT22;10093;48.148;8.542;2023-04-15T01:09:00;-1.70;99.90
19862;DHT22;10093;48.148;8.542;2023-04-15T01:11:26;-1.50;99.90
19862;DHT22;10093;48.148;8.542;2023-04-15T01:13:52;-1.30;99.90
19862;DHT22;10093;48.148;8.542;2023-04-15T01:16:19;-1.40;99.90
19862;DHT22;10093;48.148;8.542;2023-04-15T01:18:45;-1.50;99.90
19862;DHT22;10093;48.148;8.542;2023-04-15T01:21:11;-1.40;99.90
19862;DHT22;10093;48.148;8.542;2023-04-15T01:23:38;-1.40;99.90
19862;DHT22;10093;48.148;8.542;2023-04-15T01:26:07;-1.30;99.90
19862;DHT22;10093;48.148;8.542;2023-04-15T01:28:36;-1.40;99.90
19862;DHT22;10093;48.148;8.542;2023-04-15T01:31:13;-1.50;99.90
19862;DHT22;10093;48.148;8.542;2023-04-15T01:33:40;-1.50;99.90
19862;DHT22;10093;48.148;8.542;2023-04-15T01:36:07;-1.60;99.90
19862;DHT22;10093;48.148;8.542;2023-04-15T01:38:34;-1.70;99.90
19862;DHT22;10093;48.148;8.542;2023-04-15T01:41:01;-1.80;99.90
19862;DHT22;10093;48.148;8.542;2023-04-15T01:43:27;-1.90;99.90
19862;DHT22;10093;48.148;8.542;2023-04-15T01:45:53;-1.90;99.90
19862;DHT22;10093;48.148;8.542;2023-04-15T01:48:18;-2.00;99.90
19862;DHT22;10093;48.148;8.542;2023-04-15T01:50:44;-2.10;99.90
19862;DHT22;10093;48.148;8.542;2023-04-15T01:53:10;-2.00;99.90
19862;DHT22;10093;48.148;8.542;2023-04-15T01:55:36;-1.80;99.90
19862;DHT22;10093;48.148;8.542;2023-04-15T01:58:02;-1.70;99.90
19862;DHT22;10093;48.148;8.542;2023-04-15T02:00:28;-1.60;99.90
19862;DHT22;10093;48.148;8.542;2023-04-15T02:02:54;-1.80;99.90
19862;DHT22;10093;48.148;8.542;2023-04-15T02:05:19;-1.90;99.90
19862;DHT22;10093;48.148;8.542;2023-04-15T02:07:45;-1.80;99.90
19862;DHT22;10093;48.148;8.542;2023-04-15T02:10:11;-1.70;99.90
19862;DHT22;10093;48.148;8.542;2023-04-15T02:12:41;-1.60;99.90
19862;DHT22;10093;48.148;8.542;2023-04-15T02:15:07;-1.90;99.90
19862;DHT22;10093;48.148;8.542;2023-04-15T02:17:33;-2.00;99.90
19862;DHT22;10093;48.148;8.542;2023-04-15T02:20:00;-1.60;99.90
19862;DHT22;10093;48.148;8.542;2023-04-15T02:22:25;-1.60;99.90
19862;DHT22;10093;48.148;8.542;2023-04-15T02:24:51;-1.90;99.90
19862;DHT22;10093;48.148;8.542;2023-04-15T02:27:17;-1.90;99.90
19862;DHT22;10093;48.148;8.542;2023-04-15T02:29:43;-2.00;99.90
19862;DHT22;10093;48.148;8.542;2023-04-15T02:32:10;-2.10;99.90
19862;DHT22;10093;48.148;8.542;2023-04-15T02:34:36;-2.10;99.90
19862;DHT22;10093;48.148;8.542;2023-04-15T02:37:06;-2.20;99.90
19862;DHT22;10093;48.148;8.542;2023-04-15T02:39:32;-2.40;99.90
19862;DHT22;10093;48.148;8.542;2023-04-15T02:41:57;-2.40;99.90
19862;DHT22;10093;48.148;8.542;2023-04-15T02:44:24;-2.10;99.90
19862;DHT22;10093;48.148;8.542;2023-04-15T02:46:50;-1.80;99.90
19862;DHT22;10093;48.148;8.542;2023-04-15T02:49:17;-1.80;99.90
19862;DHT22;10093;48.148;8.542;2023-04-15T02:51:43;-1.60;99.90
19862;DHT22;10093;48.148;8.542;2023-04-15T02:54:12;-1.80;99.90
19862;DHT22;10093;48.148;8.542;2023-04-15T02:56:37;-1.70;99.90
19862;DHT22;10093;48.148;8.542;2023-04-15T02:59:03;-1.80;99.90
19862;DHT22;10093;48.148;8.542;2023-04-15T03:01:29;-2.00;99.90
19862;DHT22;10093;48.148;8.542;2023-04-15T03:03:54;-1.70;99.90
19862;DHT22;10093;48.148;8.542;2023-04-15T03:06:20;-1.40;99.90
19862;DHT22;10093;48.148;8.542;2023-04-15T03:08:46;-1.40;99.90
19862;DHT22;10093;48.148;8.542;2023-04-15T03:11:11;-1.50;99.90
19862;DHT22;10093;48.148;8.542;2023-04-15T03:13:38;-1.60;99.90
19862;DHT22;10093;48.148;8.542;2023-04-15T03:16:06;-1.70;99.90
19862;DHT22;10093;48.148;8.542;2023-04-15T03:18:31;-1.80;99.90
19862;DHT22;10093;48.148;8.542;2023-04-15T03:20:57;-1.80;99.90
19862;DHT22;10093;48.148;8.542;2023-04-15T03:23:23;-1.80;99.90
19862;DHT22;10093;48.148;8.542;2023-04-15T03:25:48;-1.70;99.90
19862;DHT22;10093;48.148;8.542;2023-04-15T03:28:14;-1.70;99.90
19862;DHT22;10093;48.148;8.542;2023-04-15T03:30:40;-1.60;99.90
19862;DHT22;10093;48.148;8.542;2023-04-15T03:33:06;-1.80;99.90
19862;DHT22;10093;48.148;8.542;2023-04-15T03:35:31;-2.00;99.90
19862;DHT22;10093;48.148;8.542;2023-04-15T03:37:57;-2.20;99.90
19862;DHT22;10093;48.148;8.542;2023-04-15T03:40:22;-2.40;99.90
19862;DHT22;10093;48.148;8.542;2023-04-15T03:42:48;-2.20;99.90
19862;DHT22;10093;48.148;8.542;2023-04-15T03:45:14;-2.40;99.90
19862;DHT22;10093;48.148;8.542;2023-04-15T03:47:39;-2.50;99.90
19862;DHT22;10093;48.148;8.542;2023-04-15T03:50:05;-2.30;99.90
19862;DHT22;10093;48.148;8.542;2023-04-15T03:52:31;-2.40;99.90
19862;DHT22;10093;48.148;8.542;2023-04-15T03:54:57;-2.40;99.90
19862;DHT22;10093;48.148;8.542;2023-04-15T03:57:22;-2.30;99.90
19862;DHT22;10093;48.148;8.542;2023-04-15T03:59:48;-2.40;99.90
19862;DHT22;10093;48.148;8.542;2023-04-15T04:02:13;-2.50;99.90
19862;DHT22;10093;48.148;8.542;2023-04-15T04:04:39;-2.50;99.90
19862;DHT22;10093;48.148;8.542;2023-04-15T04:07:05;-2.40;99.90
19862;DHT22;10093;48.148;8.542;2023-04-15T04:09:31;-2.30;99.90
19862;DHT22;10093;48.148;8.542;2023-04-15T04:11:56;-2.10;99.90
19862;DHT22;10093;48.148;8.542;2023-04-15T04:14:22;-2.20;99.90
19862;DHT22;10093;48.148;8.542;2023-04-15T04:16:54;-2.10;99.90
19862;DHT22;10093;48.148;8.542;2023-04-15T04:19:19;-2.00;99.90
19862;DHT22;10093;48.148;8.542;2023-04-15T04:21:45;-1.70;99.90
19862;DHT22;10093;48.148;8.542;2023-04-15T04:24:11;-1.70;99.90
19862;DHT22;10093;48.148;8.542;2023-04-15T04:26:36;-1.70;99.90
19862;DHT22;10093;48.148;8.542;2023-04-15T04:29:02;-1.50;99.90
19862;DHT22;10093;48.148;8.542;2023-04-15T04:31:28;-1.50;99.90
19862;DHT22;10093;48.148;8.542;2023-04-15T04:33:53;-1.50;99.90
19862;DHT22;10093;48.148;8.542;2023-04-15T04:36:19;-1.60;99.90
19862;DHT22;10093;48.148;8.542;2023-04-15T04:38:44;-1.70;99.90
19862;DHT22;10093;48.148;8.542;2023-04-15T04:41:10;-1.70;99.90
19862;DHT22;10093;48.148;8.542;2023-04-15T04:43:35;-1.60;99.90
19862;DHT22;10093;48.148;8.542;2023-04-15T04:46:01;-1.40;99.90
19862;DHT22;10093;48.148;8.542;2023-04-15T04:48:27;-1.20;99.90
19862;DHT22;10093;48.148;8.542;2023-04-15T04:50:52;-1.10;99.90
19862;DHT22;10093;48.148;8.542;2023-04-15T04:53:18;-0.90;99.90
19862;DHT22;10093;48.148;8.542;2023-04-15T04:55:44;-0.80;99.90
19862;DHT22;10093;48.148;8.542;2023-04-15T04:58:10;-0.70;99.90
19862;DHT22;10093;48.148;8.542;2023-04-15T05:00:36;-0.60;99.90
19862;DHT22;10093;48.148;8.542;2023-04-15T05:03:02;-0.50;99.90
19862;DHT22;10093;48.148;8.542;2023-04-15T05:05:28;-0.50;99.90
19862;DHT22;10093;48.148;8.542;2023-04-15T05:07:54;-0.40;99.90
19862;DHT22;10093;48.148;8.542;2023-04-15T05:10:19;-0.40;99.90
19862;DHT22;10093;48.148;8.542;2023-04-15T05:12:46;-0.50;99.90
19862;DHT22;10093;48.148;8.542;2023-04-15T05:15:11;-0.30;99.90
19862;DHT22;10093;48.148;8.542;2023-04-15T05:17:37;-0.30;99.90
19862;DHT22;10093;48.148;8.542;2023-04-15T05:20:03;-0.20;99.90
19862;DHT22;10093;48.148;8.542;2023-04-15T05:22:28;0.00;99.90
19862;DHT22;10093;48.148;8.542;2023-04-15T05:24:54;0.00;99.90
19862;DHT22;10093;48.148;8.542;2023-04-15T05:27:20;0.10;99.90
19862;DHT22;10093;48.148;8.542;2023-04-15T05:29:47;0.30;99.90
19862;DHT22;10093;48.148;8.542;2023-04-15T05:32:12;0.40;99.90
19862;DHT22;10093;48.148;8.542;2023-04-15T05:34:38;0.40;99.90
19862;DHT22;10093;48.148;8.542;2023-04-15T05:37:03;0.50;99.90
19862;DHT22;10093;48.148;8.542;2023-04-15T05:39:29;0.60;99.90
19862;DHT22;10093;48.148;8.542;2023-04-15T05:41:56;0.60;99.90
19862;DHT22;10093;48.148;8.542;2023-04-15T05:44:22;0.60;99.90
19862;DHT22;10093;48.148;8.542;2023-04-15T05:46:48;0.70;99.90
19862;DHT22;10093;48.148;8.542;2023-04-15T05:49:13;0.70;99.90
19862;DHT22;10093;48.148;8.542;2023-04-15T05:51:39;0.70;99.90
19862;DHT22;10093;48.148;8.542;2023-04-15T05:54:05;0.80;99.90
19862;DHT22;10093;48.148;8.542;2023-04-15T05:56:31;0.80;99.90
19862;DHT22;10093;48.148;8.542;2023-04-15T05:58:56;0.90;99.90
19862;DHT22;10093;48.148;8.542;2023-04-15T06:01:22;1.10;99.90
19862;DHT22;10093;48.148;8.542;2023-04-15T06:03:48;1.30;99.90
19862;DHT22;10093;48.148;8.542;2023-04-15T06:06:14;1.40;99.90
19862;DHT22;10093;48.148;8.542;2023-04-15T06:08:40;1.60;99.90
19862;DHT22;10093;48.148;8.542;2023-04-15T06:11:05;1.80;99.90
19862;DHT22;10093;48.148;8.542;2023-04-15T06:13:31;2.10;99.90
19862;DHT22;10093;48.148;8.542;2023-04-15T06:15:57;2.40;99.90
19862;DHT22;10093;48.148;8.542;2023-04-15T06:18:22;2.60;99.90
19862;DHT22;10093;48.148;8.542;2023-04-15T06:20:48;2.90;99.90
19862;DHT22;10093;48.148;8.542;2023-04-15T06:23:14;3.10;99.90
19862;DHT22;10093;48.148;8.542;2023-04-15T06:25:39;3.20;99.90
19862;DHT22;10093;48.148;8.542;2023-04-15T06:28:05;3.00;99.90
19862;DHT22;10093;48.148;8.542;2023-04-15T06:30:31;3.00;99.90
19862;DHT22;10093;48.148;8.542;2023-04-15T06:32:56;3.40;99.90
19862;DHT22;10093;48.148;8.542;2023-04-15T06:35:22;3.50;99.90
19862;DHT22;10093;48.148;8.542;2023-04-15T06:37:48;4.00;99.90
19862;DHT22;10093;48.148;8.542;2023-04-15T06:40:13;4.60;99.90
19862;DHT22;10093;48.148;8.542;2023-04-15T06:42:39;5.10;99.90
19862;DHT22;10093;48.148;8.542;2023-04-15T06:45:05;5.60;99.90
19862;DHT22;10093;48.148;8.542;2023-04-15T06:47:31;6.00;99.90
19862;DHT22;10093;48.148;8.542;2023-04-15T06:49:56;6.60;99.90
19862;DHT22;10093;48.148;8.542;2023-04-15T06:52:22;7.20;99.90
19862;DHT22;10093;48.148;8.542;2023-04-15T06:54:47;8.10;99.90
19862;DHT22;10093;48.148;8.542;2023-04-15T06:57:13;9.10;99.90
19862;DHT22;10093;48.148;8.542;2023-04-15T06:59:39;9.00;99.90
19862;DHT22;10093;48.148;8.542;2023-04-15T07:02:04;9.80;99.90
19862;DHT22;10093;48.148;8.542;2023-04-15T07:04:31;11.10;99.90
19862;DHT22;10093;48.148;8.542;2023-04-15T07:06:57;12.30;99.90
19862;DHT22;10093;48.148;8.542;2023-04-15T07:09:22;13.10;99.90
19862;DHT22;10093;48.148;8.542;2023-04-15T07:11:49;13.60;99.90
19862;DHT22;10093;48.148;8.542;2023-04-15T07:14:14;12.20;99.90
19862;DHT22;10093;48.148;8.542;2023-04-15T07:16:40;12.00;99.90
19862;DHT22;10093;48.148;8.542;2023-04-15T07:19:06;12.20;99.90
19862;DHT22;10093;48.148;8.542;2023-04-15T07:21:31;11.60;99.90
19862;DHT22;10093;48.148;8.542;2023-04-15T07:23:57;11.80;99.90
19862;DHT22;10093;48.148;8.542;2023-04-15T07:26:23;12.60;99.90
19862;DHT22;10093;48.148;8.542;2023-04-15T07:28:49;13.00;99.90
19862;DHT22;10093;48.148;8.542;2023-04-15T07:31:15;14.00;99.90
19862;DHT22;10093;48.148;8.542;2023-04-15T07:33:41;15.10;99.90
19862;DHT22;10093;48.148;8.542;2023-04-15T07:36:07;16.30;99.90
19862;DHT22;10093;48.148;8.542;2023-04-15T07:38:33;16.60;99.90
19862;DHT22;10093;48.148;8.542;2023-04-15T07:40:58;16.30;99.90
19862;DHT22;10093;48.148;8.542;2023-04-15T07:43:24;16.20;99.90
19862;DHT22;10093;48.148;8.542;2023-04-15T07:45:49;17.90;99.90
19862;DHT22;10093;48.148;8.542;2023-04-15T07:48:15;19.40;99.90
19862;DHT22;10093;48.148;8.542;2023-04-15T07:50:41;20.30;99.90
19862;DHT22;10093;48.148;8.542;2023-04-15T07:53:07;20.20;99.90
19862;DHT22;10093;48.148;8.542;2023-04-15T07:55:33;19.30;99.90
19862;DHT22;10093;48.148;8.542;2023-04-15T07:57:59;18.80;99.90
19862;DHT22;10093;48.148;8.542;2023-04-15T08:00:24;18.80;99.90
19862;DHT22;10093;48.148;8.542;2023-04-15T08:02:51;18.90;99.90
19862;DHT22;10093;48.148;8.542;2023-04-15T08:05:18;17.70;99.90
19862;DHT22;10093;48.148;8.542;2023-04-15T08:07:44;16.70;99.90
19862;DHT22;10093;48.148;8.542;2023-04-15T08:10:10;16.50;99.90
19862;DHT22;10093;48.148;8.542;2023-04-15T08:12:36;16.30;99.90
19862;DHT22;10093;48.148;8.542;2023-04-15T08:15:02;16.40;99.90
19862;DHT22;10093;48.148;8.542;2023-04-15T08:17:28;16.40;99.90
19862;DHT22;10093;48.148;8.542;2023-04-15T08:19:54;16.30;99.90
19862;DHT22;10093;48.148;8.542;2023-04-15T08:22:19;16.60;99.90
19862;DHT22;10093;48.148;8.542;2023-04-15T08:24:45;17.00;99.90
19862;DHT22;10093;48.148;8.542;2023-04-15T08:27:11;17.00;99.90
19862;DHT22;10093;48.148;8.542;2023-04-15T08:29:36;16.90;99.90
19862;DHT22;10093;48.148;8.542;2023-04-15T08:32:02;16.20;99.90
19862;DHT22;10093;48.148;8.542;2023-04-15T08:34:28;16.20;99.90
19862;DHT22;10093;48.148;8.542;2023-04-15T08:36:55;15.50;99.90
19862;DHT22;10093;48.148;8.542;2023-04-15T08:39:21;15.90;99.90
19862;DHT22;10093;48.148;8.542;2023-04-15T08:42:00;16.80;99.90
19862;DHT22;10093;48.148;8.542;2023-04-15T08:44:28;18.10;99.90
19862;DHT22;10093;48.148;8.542;2023-04-15T08:46:56;15.50;99.90
19862;DHT22;10093;48.148;8.542;2023-04-15T08:49:25;14.90;99.90
19862;DHT22;10093;48.148;8.542;2023-04-15T08:51:51;14.70;99.90
19862;DHT22;10093;48.148;8.542;2023-04-15T08:54:18;16.20;99.90
19862;DHT22;10093;48.148;8.542;2023-04-15T08:56:43;16.40;99.90
19862;DHT22;10093;48.148;8.542;2023-04-15T08:59:09;15.50;99.90
19862;DHT22;10093;48.148;8.542;2023-04-15T09:01:37;15.40;99.90
19862;DHT22;10093;48.148;8.542;2023-04-15T09:04:03;16.10;99.90
19862;DHT22;10093;48.148;8.542;2023-04-15T09:06:32;15.20;99.90
19862;DHT22;10093;48.148;8.542;2023-04-15T09:08:58;16.40;99.90
19862;DHT22;10093;48.148;8.542;2023-04-15T09:11:23;18.80;99.90
19862;DHT22;10093;48.148;8.542;2023-04-15T09:13:49;16.70;99.90
19862;DHT22;10093;48.148;8.542;2023-04-15T09:16:15;16.50;99.90
19862;DHT22;10093;48.148;8.542;2023-04-15T09:18:41;18.50;99.90
19862;DHT22;10093;48.148;8.542;2023-04-15T09:21:12;19.10;99.90
19862;DHT22;10093;48.148;8.542;2023-04-15T09:23:40;16.70;99.90
19862;DHT22;10093;48.148;8.542;2023-04-15T09:26:06;15.80;99.90
19862;DHT22;10093;48.148;8.542;2023-04-15T09:28:33;17.70;99.90
19862;DHT22;10093;48.148;8.542;2023-04-15T09:31:05;15.70;99.90
19862;DHT22;10093;48.148;8.542;2023-04-15T09:33:31;16.60;99.90
19862;DHT22;10093;48.148;8.542;2023-04-15T09:36:00;15.50;99.90
19862;DHT22;10093;48.148;8.542;2023-04-15T09:38:26;16.40;99.90
19862;DHT22;10093;48.148;8.542;2023-04-15T09:40:52;16.60;99.90
19862;DHT22;10093;48.148;8.542;2023-04-15T09:43:18;18.00;99.90
19862;DHT22;10093;48.148;8.542;2023-04-15T09:45:52;16.50;99.90
19862;DHT22;10093;48.148;8.542;2023-04-15T09:48:23;16.70;99.90
19862;DHT22;10093;48.148;8.542;2023-04-15T09:50:57;16.20;99.90
19862;DHT22;10093;48.148;8.542;2023-04-15T09:53:24;16.30;99.90
19862;DHT22;10093;48.148;8.542;2023-04-15T09:55:58;16.00;99.90
19862;DHT22;10093;48.148;8.542;2023-04-15T09:58:30;15.70;99.90
19862;DHT22;10093;48.148;8.542;2023-04-15T10:00:57;15.10;99.90
19862;DHT22;10093;48.148;8.542;2023-04-15T10:03:24;16.20;99.90
19862;DHT22;10093;48.148;8.542;2023-04-15T10:05:55;17.50;99.90
19862;DHT22;10093;48.148;8.542;2023-04-15T10:08:23;16.60;99.90
19862;DHT22;10093;48.148;8.542;2023-04-15T10:10:49;16.80;99.90
19862;DHT22;10093;48.148;8.542;2023-04-15T10:13:26;17.30;99.90
19862;DHT22;10093;48.148;8.542;2023-04-15T10:15:57;15.90;99.90
19862;DHT22;10093;48.148;8.542;2023-04-15T10:18:26;15.30;99.90
19862;DHT22;10093;48.148;8.542;2023-04-15T10:20:53;15.80;99.90
19862;DHT22;10093;48.148;8.542;2023-04-15T10:23:21;14.40;99.90
19862;DHT22;10093;48.148;8.542;2023-04-15T10:25:48;14.00;99.90
19862;DHT22;10093;48.148;8.542;2023-04-15T10:28:16;14.00;99.90
19862;DHT22;10093;48.148;8.542;2023-04-15T10:30:42;14.30;99.90
19862;DHT22;10093;48.148;8.542;2023-04-15T10:33:08;14.20;99.40
19862;DHT22;10093;48.148;8.542;2023-04-15T10:35:35;14.40;99.90
19862;DHT22;10093;48.148;8.542;2023-04-15T10:38:01;15.60;99.70
19862;DHT22;10093;48.148;8.542;2023-04-15T10:40:28;17.80;97.90
19862;DHT22;10093;48.148;8.542;2023-04-15T10:42:58;18.50;98.10
19862;DHT22;10093;48.148;8.542;2023-04-15T10:45:31;16.70;97.20
19862;DHT22;10093;48.148;8.542;2023-04-15T10:48:00;15.70;98.30
19862;DHT22;10093;48.148;8.542;2023-04-15T10:50:27;15.30;99.90
19862;DHT22;10093;48.148;8.542;2023-04-15T10:52:55;17.00;99.70
19862;DHT22;10093;48.148;8.542;2023-04-15T10:55:23;15.40;99.90
19862;DHT22;10093;48.148;8.542;2023-04-15T10:57:53;15.90;99.90
19862;DHT22;10093;48.148;8.542;2023-04-15T11:00:24;16.90;98.30
19862;DHT22;10093;48.148;8.542;2023-04-15T11:02:54;17.30;97.80
19862;DHT22;10093;48.148;8.542;2023-04-15T11:05:22;17.20;98.60
19862;DHT22;10093;48.148;8.542;2023-04-15T11:08:08;17.20;99.90
19862;DHT22;10093;48.148;8.542;2023-04-15T11:13:02;16.10;99.90
19862;DHT22;10093;48.148;8.542;2023-04-15T11:18:08;14.60;99.90
19862;DHT22;10093;48.148;8.542;2023-04-15T11:20:34;14.00;99.90
19862;DHT22;10093;48.148;8.542;2023-04-15T11:23:00;14.00;99.90
19862;DHT22;10093;48.148;8.542;2023-04-15T11:25:28;13.80;99.90
19862;DHT22;10093;48.148;8.542;2023-04-15T11:27:55;14.10;99.90
19862;DHT22;10093;48.148;8.542;2023-04-15T11:30:25;13.80;99.90
19862;DHT22;10093;48.148;8.542;2023-04-15T11:33:05;13.30;99.90
19862;DHT22;10093;48.148;8.542;2023-04-15T11:35:32;12.50;99.90
19862;DHT22;10093;48.148;8.542;2023-04-15T11:38:04;12.10;99.90
19862;DHT22;10093;48.148;8.542;2023-04-15T11:40:31;12.50;99.90
19862;DHT22;10093;48.148;8.542;2023-04-15T11:43:07;13.40;99.90
19862;DHT22;10093;48.148;8.542;2023-04-15T11:45:34;14.10;99.90
19862;DHT22;10093;48.148;8.542;2023-04-15T11:48:08;13.70;99.90
19862;DHT22;10093;48.148;8.542;2023-04-15T11:50:35;13.30;99.90
19862;DHT22;10093;48.148;8.542;2023-04-15T11:53:03;13.90;99.90
19862;DHT22;10093;48.148;8.542;2023-04-15T11:55:29;14.60;99.90
19862;DHT22;10093;48.148;8.542;2023-04-15T12:00:32;15.20;99.90
19862;DHT22;10093;48.148;8.542;2023-04-15T12:03:28;15.30;99.90
19862;DHT22;10093;48.148;8.542;2023-04-15T12:06:13;15.30;99.90
19862;DHT22;10093;48.148;8.542;2023-04-15T12:12:00;14.80;99.90
19862;DHT22;10093;48.148;8.542;2023-04-15T12:14:32;14.40;99.90
19862;DHT22;10093;48.148;8.542;2023-04-15T12:17:00;14.50;99.90
19862;DHT22;10093;48.148;8.542;2023-04-15T12:22:04;13.90;99.90
19862;DHT22;10093;48.148;8.542;2023-04-15T12:24:32;13.80;99.90
19862;DHT22;10093;48.148;8.542;2023-04-15T12:27:07;13.70;99.90
19862;DHT22;10093;48.148;8.542;2023-04-15T12:29:34;13.70;99.90
19862;DHT22;10093;48.148;8.542;2023-04-15T12:32:08;13.50;99.90
19862;DHT22;10093;48.148;8.542;2023-04-15T12:37:03;14.00;99.90
19862;DHT22;10093;48.148;8.542;2023-04-15T12:39:30;13.70;99.90
19862;DHT22;10093;48.148;8.542;2023-04-15T12:41:57;14.00;99.90
19862;DHT22;10093;48.148;8.542;2023-04-15T12:44:24;14.30;99.90
19862;DHT22;10093;48.148;8.542;2023-04-15T12:46:50;14.60;99.90
19862;DHT22;10093;48.148;8.542;2023-04-15T12:49:18;14.70;99.90
19862;DHT22;10093;48.148;8.542;2023-04-15T12:51:51;14.60;99.90
19862;DHT22;10093;48.148;8.542;2023-04-15T12:54:17;14.00;99.90
19862;DHT22;10093;48.148;8.542;2023-04-15T12:56:44;13.70;99.90
19862;DHT22;10093;48.148;8.542;2023-04-15T12:59:10;14.30;99.90
19862;DHT22;10093;48.148;8.542;2023-04-15T13:01:37;14.60;99.90
19862;DHT22;10093;48.148;8.542;2023-04-15T13:04:03;14.50;99.90
19862;DHT22;10093;48.148;8.542;2023-04-15T13:06:29;15.10;99.90
19862;DHT22;10093;48.148;8.542;2023-04-15T13:09:01;15.50;99.90
19862;DHT22;10093;48.148;8.542;2023-04-15T13:11:27;15.70;99.90
19862;DHT22;10093;48.148;8.542;2023-04-15T13:13:55;15.90;99.90
19862;DHT22;10093;48.148;8.542;2023-04-15T13:16:22;15.40;99.90
19862;DHT22;10093;48.148;8.542;2023-04-15T13:18:48;15.10;99.90
19862;DHT22;10093;48.148;8.542;2023-04-15T13:21:13;15.00;99.90
19862;DHT22;10093;48.148;8.542;2023-04-15T13:23:43;14.90;99.90
19862;DHT22;10093;48.148;8.542;2023-04-15T13:26:08;15.00;99.90
19862;DHT22;10093;48.148;8.542;2023-04-15T13:28:34;14.90;99.90
19862;DHT22;10093;48.148;8.542;2023-04-15T13:31:00;14.80;99.90
19862;DHT22;10093;48.148;8.542;2023-04-15T13:33:26;14.80;99.90
19862;DHT22;10093;48.148;8.542;2023-04-15T13:35:52;14.50;99.90
19862;DHT22;10093;48.148;8.542;2023-04-15T13:38:18;14.10;99.90
19862;DHT22;10093;48.148;8.542;2023-04-15T13:43:29;13.30;99.90
19862;DHT22;10093;48.148;8.542;2023-04-15T13:45:55;13.10;99.90
19862;DHT22;10093;48.148;8.542;2023-04-15T13:48:20;13.30;99.90
19862;DHT22;10093;48.148;8.542;2023-04-15T13:50:46;13.60;99.90
19862;DHT22;10093;48.148;8.542;2023-04-15T13:53:12;13.60;99.90
19862;DHT22;10093;48.148;8.542;2023-04-15T13:55:37;13.60;99.90
19862;DHT22;10093;48.148;8.542;2023-04-15T13:58:06;14.30;99.90
19862;DHT22;10093;48.148;8.542;2023-04-15T14:00:32;14.00;99.90
19862;DHT22;10093;48.148;8.542;2023-04-15T14:02:58;13.80;99.90
19862;DHT22;10093;48.148;8.542;2023-04-15T14:05:23;13.50;99.90
19862;DHT22;10093;48.148;8.542;2023-04-15T14:07:49;13.50;99.90
19862;DHT22;10093;48.148;8.542;2023-04-15T14:10:14;13.30;99.90
19862;DHT22;10093;48.148;8.542;2023-04-15T14:12:40;13.10;99.90
19862;DHT22;10093;48.148;8.542;2023-04-15T14:15:06;13.00;99.90
19862;DHT22;10093;48.148;8.542;2023-04-15T14:17:32;13.10;99.90
19862;DHT22;10093;48.148;8.542;2023-04-15T14:19:58;13.40;99.90
19862;DHT22;10093;48.148;8.542;2023-04-15T14:22:23;13.50;99.90
19862;DHT22;10093;48.148;8.542;2023-04-15T14:24:49;13.50;99.90
19862;DHT22;10093;48.148;8.542;2023-04-15T14:27:17;13.50;99.90
19862;DHT22;10093;48.148;8.542;2023-04-15T14:29:43;13.40;99.90
19862;DHT22;10093;48.148;8.542;2023-04-15T14:32:08;13.80;99.90
19862;DHT22;10093;48.148;8.542;2023-04-15T14:34:34;14.10;99.90
19862;DHT22;10093;48.148;8.542;2023-04-15T14:36:59;14.00;99.90
19862;DHT22;10093;48.148;8.542;2023-04-15T14:39:25;14.00;99.90
19862;DHT22;10093;48.148;8.542;2023-04-15T14:41:51;14.00;99.90
19862;DHT22;10093;48.148;8.542;2023-04-15T14:44:17;14.10;99.90
19862;DHT22;10093;48.148;8.542;2023-04-15T14:46:42;14.20;99.90
19862;DHT22;10093;48.148;8.542;2023-04-15T14:49:08;14.10;99.90
19862;DHT22;10093;48.148;8.542;2023-04-15T14:51:34;13.80;99.90
19862;DHT22;10093;48.148;8.542;2023-04-15T14:53:59;13.60;99.90
19862;DHT22;10093;48.148;8.542;2023-04-15T14:56:25;13.70;99.90
19862;DHT22;10093;48.148;8.542;2023-04-15T14:58:51;13.80;99.90
19862;DHT22;10093;48.148;8.542;2023-04-15T15:01:19;13.90;99.90
19862;DHT22;10093;48.148;8.542;2023-04-15T15:03:45;14.10;99.90
19862;DHT22;10093;48.148;8.542;2023-04-15T15:06:10;14.40;99.90
19862;DHT22;10093;48.148;8.542;2023-04-15T15:08:36;14.80;99.90
19862;DHT22;10093;48.148;8.542;2023-04-15T15:11:01;14.90;99.90
19862;DHT22;10093;48.148;8.542;2023-04-15T15:13:27;15.10;99.90
19862;DHT22;10093;48.148;8.542;2023-04-15T15:15:53;14.90;99.90
19862;DHT22;10093;48.148;8.542;2023-04-15T15:18:18;15.40;99.90
19862;DHT22;10093;48.148;8.542;2023-04-15T15:20:44;15.60;99.90
19862;DHT22;10093;48.148;8.542;2023-04-15T15:23:10;15.60;99.90
19862;DHT22;10093;48.148;8.542;2023-04-15T15:25:35;15.40;99.90
19862;DHT22;10093;48.148;8.542;2023-04-15T15:28:01;15.40;99.90
19862;DHT22;10093;48.148;8.542;2023-04-15T15:30:27;15.20;99.90
19862;DHT22;10093;48.148;8.542;2023-04-15T15:32:52;14.90;99.90
19862;DHT22;10093;48.148;8.542;2023-04-15T15:35:18;14.50;99.90
19862;DHT22;10093;48.148;8.542;2023-04-15T15:37:44;14.40;99.90
19862;DHT22;10093;48.148;8.542;2023-04-15T15:40:10;14.30;99.90
19862;DHT22;10093;48.148;8.542;2023-04-15T15:42:36;14.10;99.90
19862;DHT22;10093;48.148;8.542;2023-04-15T15:45:03;13.20;99.90
19862;DHT22;10093;48.148;8.542;2023-04-15T15:47:29;13.20;99.90